Alto, Georgia
Current Conditions -  °F | °C
As of 4:55 AM on Friday 31 Oct 2014 (Local Time) from KTOC Reporting Station
Clear Clear  
Wind Chill: 44°   Ceiling: Unl
Heat Index: 44°   Visibility: 10mi
Dew Point: 41°   Wind: 3mph
Humidity: 87%   Direction: 360°N
Pressure: 29.93"   Gusts: NA
Location:  34.47°N, 83.57°W
Report Text: KTOC 310855Z AUTO 36003KT 10SM CLR 07/05 A2993 RMK AO2 T00690048
Loading
Personal Weather Stations






























Interactive Weather Map
Tropical Storm Tracking
New forecast layout! Learn more

10-Day Weather Forecast

Advertisements
Track Severe Weather on mobile